CheckWX is a tool to help pilots better visualize weather data.  It is not intended as a substitute for an official pre-flight weather briefing.

12:31:16 UTC

PAOH METAR
Hoonah Airport
Hoonah, Alaska, USA
Current

19 mins ago

PAOH 211212Z AUTO 07007KT 10SM FEW016 BKN025 OVC055 02/01 A2934 RMK AO2 PWINO FZRANO $
Observed
Feb-21 @ 12:12 UTC
Wind
  • 070° at 7 KTS
Visibility
10 SM
Flight Rules
MVFR
Cloud Levels
  • Few at 1,600' AGL
  • Broken at 2,500' AGL
  • Overcast at 5,500' AGL
Temperature
C / 36°F
Dewpoint
C / 34°F
Humidity
93%
Altimeter
29.34" Hg
Pressure
993.52 hPa
Previous

35 mins ago

PAOH 211156Z AUTO 08006KT 10SM SCT021 BKN031 OVC060 02/01 A2933 RMK AO2 SLP932 P0004 60022 7//// T00170011 10028 20011 50003 PWINO FZRANO $
Observed
Feb-21 @ 11:56 UTC
Wind
  • 080° at 6 KTS
Visibility
10 SM
Flight Rules
VFR
Cloud Levels
  • Scattered at 2,100' AGL
  • Broken at 3,100' AGL
  • Overcast at 6,000' AGL
Temperature
C / 36°F
Dewpoint
C / 34°F
Humidity
93%
Altimeter
29.33" Hg
Pressure
993.22 hPa
Current Rain
0.04"
Previous

57 mins ago

PAOH 211134Z AUTO 07005KT 10SM FEW016 BKN031 OVC065 02/01 A2933 RMK AO2 P0004 PWINO FZRANO $
Observed
Feb-21 @ 11:34 UTC
Wind
  • 070° at 5 KTS
Visibility
10 SM
Flight Rules
VFR
Cloud Levels
  • Few at 1,600' AGL
  • Broken at 3,100' AGL
  • Overcast at 6,500' AGL
Temperature
C / 36°F
Dewpoint
C / 34°F
Humidity
93%
Altimeter
29.33" Hg
Pressure
993.22 hPa
Current Rain
0.04"